LFLS

Grenoble

Airport
ICAO code
LFLS
Summary
ICAO Region
EUR
ICAO Territory
Location

Grenoble, Rhone-Alpes,

Coordinates
45° 21' 47" N , 5° 19' 43" E
KCC
Metar
Observation
LFLS 092000Z AUTO 02003KT 340V050 8000 -RA BKN006 OVC012 02/01 Q1002 NOSIG
Station
Grenoble / St. Geoirs
Date/Time
2022-12-09 20:00:00
Wind direction
20°
Wind speed
03 kts
Lowest cloud amount
broken clouds
Temperature
2°C
Dew point
1°C
Humidity
93%
QNH
1002 hPa
Weather condition
n/a

Description

International airport serving resort of Grenoble.

Climatology

Humid “subtropical” climate (Köppen climate classification Cfa) - characterized by hot, humid summers and cool winters. Significant amounts of precipitation occur in all seasons in most areas. Winter rainfall (and sometimes snowfall) is associated with large storms that the westerlies steer from west to east. Most summer rainfall occurs during thunderstorms.

Runways

Designator Length Width Surface Rops
9/27 3050 45 ASP Yes/Yes

Airport map

Aerial View

Airport accidents

SKYbrary Partners:

Safety knowledge contributed by: